createdAt,value
2022-12-24T00:01:09.871Z,12.04
2022-12-24T00:03:38.249Z,12.04
2022-12-24T00:06:10.098Z,12.02
2022-12-24T00:08:38.008Z,12.01
2022-12-24T00:11:05.859Z,12.02
2022-12-24T00:13:33.717Z,12.01
2022-12-24T00:16:01.936Z,11.98
2022-12-24T00:18:29.752Z,11.97
2022-12-24T00:20:57.504Z,11.95
2022-12-24T00:23:26.029Z,11.92
2022-12-24T00:25:54.108Z,11.92
2022-12-24T00:28:22.058Z,11.91
2022-12-24T00:30:50.004Z,11.93
2022-12-24T00:33:22.650Z,11.93
2022-12-24T00:35:52.970Z,11.92
2022-12-24T00:38:20.736Z,11.90
2022-12-24T00:40:48.565Z,11.89
2022-12-24T00:43:16.385Z,11.87
2022-12-24T00:45:44.306Z,11.87
2022-12-24T00:48:12.262Z,11.85
2022-12-24T00:50:40.141Z,11.80
2022-12-24T00:53:08.072Z,11.80
2022-12-24T00:55:35.821Z,11.76
2022-12-24T00:58:03.706Z,11.72
2022-12-24T01:00:31.471Z,11.76
2022-12-24T01:02:59.448Z,11.77
2022-12-24T01:05:27.435Z,11.76
2022-12-24T01:07:55.762Z,11.73
2022-12-24T01:10:23.779Z,11.71
2022-12-24T01:12:51.631Z,11.67
2022-12-24T01:15:19.647Z,11.63
2022-12-24T01:17:47.476Z,11.59
2022-12-24T01:20:17.078Z,11.55
2022-12-24T01:22:44.952Z,11.52
2022-12-24T01:25:12.795Z,11.50
2022-12-24T01:27:40.597Z,11.49
2022-12-24T01:30:09.789Z,11.49
2022-12-24T01:32:37.597Z,11.49
2022-12-24T01:35:05.668Z,11.46
2022-12-24T01:37:33.459Z,11.44
2022-12-24T01:40:19.937Z,11.47
2022-12-24T01:43:08.243Z,11.47
2022-12-24T01:45:47.708Z,11.48
2022-12-24T01:48:44.788Z,11.47
2022-12-24T01:51:36.851Z,11.49
2022-12-24T01:54:17.340Z,11.50
2022-12-24T01:56:47.450Z,11.52
2022-12-24T01:59:16.493Z,11.52
2022-12-24T02:01:44.367Z,11.53
2022-12-24T02:04:19.840Z,11.55
2022-12-24T02:06:47.673Z,11.54
2022-12-24T02:09:16.365Z,11.55
2022-12-24T02:11:45.977Z,11.54
2022-12-24T02:14:13.760Z,11.54
2022-12-24T02:16:56.737Z,11.55
2022-12-24T02:19:42.137Z,11.53
2022-12-24T02:22:20.593Z,11.53
2022-12-24T02:25:03.530Z,11.53
2022-12-24T02:27:45.809Z,11.52
2022-12-24T02:30:21.964Z,11.56
2022-12-24T02:33:13.016Z,11.55
2022-12-24T02:35:46.800Z,11.58
2022-12-24T02:38:45.685Z,11.59
2022-12-24T02:41:24.587Z,11.57
2022-12-24T02:43:53.037Z,11.58
2022-12-24T02:46:23.387Z,11.58
2022-12-24T02:48:51.250Z,11.57
2022-12-24T02:51:22.881Z,11.57
2022-12-24T02:53:50.664Z,11.56
2022-12-24T02:56:27.490Z,11.56
2022-12-24T02:59:10.499Z,11.53
2022-12-24T03:01:56.906Z,11.54
2022-12-24T03:04:42.799Z,11.54
2022-12-24T03:07:16.388Z,11.54
2022-12-24T03:09:55.876Z,11.53
2022-12-24T03:12:34.565Z,11.54
2022-12-24T03:15:02.472Z,11.49
2022-12-24T03:17:30.269Z,11.48
2022-12-24T03:19:58.032Z,11.47
2022-12-24T03:22:25.868Z,11.46
2022-12-24T03:24:53.663Z,11.46
2022-12-24T03:27:21.409Z,11.43
2022-12-24T03:29:49.195Z,11.41
2022-12-24T03:32:16.938Z,11.40
2022-12-24T03:34:44.809Z,11.41
2022-12-24T03:37:12.524Z,11.39
2022-12-24T03:39:40.319Z,11.38
2022-12-24T03:42:08.121Z,11.39
2022-12-24T03:44:35.915Z,11.37
2022-12-24T03:47:03.719Z,11.34
2022-12-24T03:49:31.503Z,11.35
2022-12-24T03:51:59.390Z,11.32
2022-12-24T03:54:27.157Z,11.32
2022-12-24T03:56:54.894Z,11.31
2022-12-24T03:59:22.663Z,11.30
2022-12-24T04:01:50.685Z,11.31
2022-12-24T04:04:18.650Z,11.30
2022-12-24T04:06:46.409Z,11.30
2022-12-24T04:09:14.193Z,11.32
2022-12-24T04:11:41.944Z,11.32
2022-12-24T04:14:09.668Z,11.31
2022-12-24T04:16:37.526Z,11.33
2022-12-24T04:19:05.283Z,11.34
2022-12-24T04:21:33.014Z,11.33
2022-12-24T04:24:01.139Z,11.33
2022-12-24T04:26:28.923Z,11.33
2022-12-24T04:28:56.666Z,11.31
2022-12-24T04:31:24.632Z,11.31
2022-12-24T04:33:52.704Z,11.30
2022-12-24T04:36:20.888Z,11.30
2022-12-24T04:38:49.068Z,11.29
2022-12-24T04:41:23.233Z,11.28
2022-12-24T04:43:53.050Z,11.28
2022-12-24T04:46:22.900Z,11.27
2022-12-24T04:48:51.587Z,11.26
2022-12-24T04:51:19.670Z,11.25
2022-12-24T04:53:48.191Z,11.26
2022-12-24T04:56:21.436Z,11.22
2022-12-24T04:58:49.497Z,11.21
2022-12-24T05:01:19.905Z,11.18
2022-12-24T05:03:48.013Z,11.18
2022-12-24T05:06:18.410Z,11.17
2022-12-24T05:08:46.225Z,11.13
2022-12-24T05:11:15.590Z,11.13
2022-12-24T05:13:47.218Z,11.13
2022-12-24T05:16:16.131Z,11.11
2022-12-24T05:18:43.896Z,11.08
2022-12-24T05:21:12.540Z,11.07
2022-12-24T05:23:59.160Z,11.07
2022-12-24T05:26:36.818Z,11.03
2022-12-24T05:29:05.199Z,11.00
2022-12-24T05:31:34.469Z,10.97
2022-12-24T05:34:02.746Z,10.94
2022-12-24T05:36:30.638Z,10.89
2022-12-24T05:38:58.475Z,10.87
2022-12-24T05:41:26.511Z,10.86
2022-12-24T05:43:54.320Z,10.82
2022-12-24T05:46:22.889Z,10.82
2022-12-24T05:48:51.335Z,10.82
2022-12-24T05:51:20.786Z,10.79
2022-12-24T05:53:48.823Z,10.80
2022-12-24T05:56:22.748Z,10.80
2022-12-24T05:58:52.019Z,10.79
2022-12-24T06:01:20.068Z,10.79
2022-12-24T06:03:48.065Z,10.79
2022-12-24T06:06:20.297Z,10.79
2022-12-24T06:08:48.361Z,10.78
2022-12-24T06:11:17.751Z,10.77
2022-12-24T06:13:45.652Z,10.76
2022-12-24T06:16:18.364Z,10.75
2022-12-24T06:18:46.168Z,10.75
2022-12-24T06:21:14.245Z,10.71
2022-12-24T06:23:42.989Z,10.67
2022-12-24T06:26:12.492Z,10.62
2022-12-24T06:28:40.402Z,10.59
2022-12-24T06:31:08.688Z,10.58
2022-12-24T06:33:36.558Z,10.55
2022-12-24T06:36:11.692Z,10.55
2022-12-24T06:38:42.859Z,10.56
2022-12-24T06:41:10.796Z,10.57
2022-12-24T06:43:38.657Z,10.57
2022-12-24T06:46:06.636Z,10.54
2022-12-24T06:48:34.492Z,10.55
2022-12-24T06:51:05.528Z,10.53
2022-12-24T06:53:33.367Z,10.52
2022-12-24T06:56:08.718Z,10.49
2022-12-24T06:58:36.763Z,10.45
2022-12-24T07:01:05.833Z,10.40
2022-12-24T07:03:33.885Z,10.39
2022-12-24T07:06:01.785Z,10.37
2022-12-24T07:08:29.604Z,10.35
2022-12-24T07:10:57.464Z,10.32
2022-12-24T07:13:25.302Z,10.27
2022-12-24T07:16:01.562Z,10.27
2022-12-24T07:18:29.881Z,10.26
2022-12-24T07:20:57.719Z,10.21
2022-12-24T07:23:25.688Z,10.19
2022-12-24T07:25:53.509Z,10.11
2022-12-24T07:28:27.519Z,10.10
2022-12-24T07:30:57.127Z,10.09
2022-12-24T07:33:25.676Z,10.11
2022-12-24T07:36:07.315Z,10.08
2022-12-24T07:38:35.361Z,10.03
2022-12-24T07:41:03.488Z,9.95
2022-12-24T07:43:31.275Z,9.86
2022-12-24T07:45:59.336Z,9.83
2022-12-24T07:48:27.753Z,9.86
2022-12-24T07:50:55.650Z,9.85
2022-12-24T07:53:23.439Z,9.87
2022-12-24T07:55:51.277Z,9.87
2022-12-24T07:58:19.178Z,9.84
2022-12-24T08:00:47.405Z,9.84
2022-12-24T08:03:19.493Z,9.80
2022-12-24T08:05:47.693Z,9.79
2022-12-24T08:08:15.614Z,9.76
2022-12-24T08:10:43.763Z,9.74
2022-12-24T08:13:11.566Z,9.71
2022-12-24T08:15:39.418Z,9.69
2022-12-24T08:18:07.197Z,9.65
2022-12-24T08:20:35.164Z,9.60
2022-12-24T08:23:02.926Z,9.56
2022-12-24T08:25:30.689Z,9.53
2022-12-24T08:27:58.826Z,9.53
2022-12-24T08:30:26.705Z,9.51
2022-12-24T08:32:55.891Z,9.50
2022-12-24T08:35:23.736Z,9.48
2022-12-24T08:37:51.589Z,9.47
2022-12-24T08:40:19.595Z,9.47
2022-12-24T08:42:47.597Z,9.46
2022-12-24T08:45:15.475Z,9.48
2022-12-24T08:47:43.303Z,9.49
2022-12-24T08:50:11.467Z,9.49
2022-12-24T08:52:39.307Z,9.49
2022-12-24T08:55:07.548Z,9.47
2022-12-24T08:57:37.870Z,9.46
2022-12-24T09:00:08.983Z,9.42
2022-12-24T09:02:36.989Z,9.39
2022-12-24T09:05:05.132Z,9.41
2022-12-24T09:07:32.890Z,9.41
2022-12-24T09:10:00.685Z,9.42
2022-12-24T09:12:28.577Z,9.42
2022-12-24T09:15:02.983Z,9.42
2022-12-24T09:17:31.418Z,9.41
2022-12-24T09:19:59.282Z,9.42
2022-12-24T09:22:27.189Z,9.42
2022-12-24T09:24:55.634Z,9.41
2022-12-24T09:27:23.455Z,9.43
2022-12-24T09:29:51.396Z,9.42
2022-12-24T09:32:19.368Z,9.39
2022-12-24T09:34:47.195Z,9.39
2022-12-24T09:37:15.036Z,9.38
2022-12-24T09:39:42.822Z,9.40
2022-12-24T09:42:16.443Z,9.37
2022-12-24T09:45:05.706Z,9.42
2022-12-24T09:47:42.821Z,9.42
2022-12-24T09:50:41.510Z,9.42
2022-12-24T09:53:34.905Z,9.42
2022-12-24T09:56:04.609Z,9.43
2022-12-24T09:58:59.964Z,9.46
2022-12-24T10:01:29.979Z,9.47
2022-12-24T10:04:19.424Z,9.47
2022-12-24T10:07:25.660Z,9.48
2022-12-24T10:10:04.737Z,9.46
2022-12-24T10:12:46.021Z,9.45
2022-12-24T10:15:31.943Z,9.50
2022-12-24T10:18:34.408Z,9.51
2022-12-24T10:21:03.947Z,9.55
2022-12-24T10:23:59.060Z,9.53
2022-12-24T10:26:29.583Z,9.50
2022-12-24T10:29:20.146Z,9.50
2022-12-24T10:31:58.120Z,9.53
2022-12-24T10:34:26.509Z,9.54
2022-12-24T10:36:54.314Z,9.53
2022-12-24T10:39:25.366Z,9.52
2022-12-24T10:41:54.813Z,9.90
2022-12-24T10:44:23.590Z,10.01
2022-12-24T10:46:51.348Z,10.08
2022-12-24T10:49:43.533Z,10.23
2022-12-24T10:52:17.064Z,10.12
2022-12-24T10:55:10.546Z,10.30
2022-12-24T10:57:38.419Z,10.19
2022-12-24T11:00:07.753Z,10.12
2022-12-24T11:02:37.282Z,10.04
2022-12-24T11:05:17.880Z,10.01
2022-12-24T11:07:45.649Z,9.98
2022-12-24T11:10:15.290Z,9.93
2022-12-24T11:13:05.747Z,9.95
2022-12-24T11:15:37.017Z,9.96
2022-12-24T11:18:06.453Z,9.95
2022-12-24T11:20:35.316Z,9.95
2022-12-24T11:23:03.362Z,9.96
2022-12-24T11:25:32.964Z,9.92
2022-12-24T11:28:29.686Z,9.90
2022-12-24T11:31:06.175Z,9.87
2022-12-24T11:33:34.397Z,9.87
2022-12-24T11:36:06.426Z,9.88
2022-12-24T11:38:35.211Z,9.82
2022-12-24T11:41:10.830Z,9.86
2022-12-24T11:43:47.987Z,9.86
2022-12-24T11:46:17.224Z,9.88
2022-12-24T11:48:45.253Z,9.90
2022-12-24T11:51:26.672Z,9.89
2022-12-24T11:54:00.691Z,9.88
2022-12-24T11:56:38.289Z,9.92
2022-12-24T11:59:33.411Z,9.95
2022-12-24T12:02:19.502Z,9.96
2022-12-24T12:04:49.986Z,9.92
2022-12-24T12:07:36.806Z,9.90
2022-12-24T12:10:07.906Z,9.91
2022-12-24T12:12:37.699Z,9.90
2022-12-24T12:15:08.496Z,9.93
2022-12-24T12:17:59.131Z,9.96
2022-12-24T12:20:47.854Z,9.87
2022-12-24T12:23:52.259Z,9.86
2022-12-24T12:26:25.577Z,9.90
2022-12-24T12:28:58.057Z,9.90
2022-12-24T12:31:33.807Z,9.89
2022-12-24T12:34:04.259Z,9.88
2022-12-24T12:36:35.282Z,9.86
2022-12-24T12:39:03.740Z,9.88
2022-12-24T12:41:47.584Z,9.92
2022-12-24T12:44:27.739Z,9.99
2022-12-24T12:47:11.417Z,10.05
2022-12-24T12:50:00.846Z,10.29
2022-12-24T12:52:35.581Z,10.42
2022-12-24T12:55:41.111Z,10.44
2022-12-24T12:58:42.474Z,10.49
2022-12-24T13:01:32.589Z,10.49
2022-12-24T13:04:16.205Z,10.48
2022-12-24T13:07:13.247Z,10.43
2022-12-24T13:10:19.634Z,10.41
2022-12-24T13:13:16.917Z,10.43
2022-12-24T13:16:09.985Z,10.45
2022-12-24T13:18:59.001Z,10.45
2022-12-24T13:21:28.321Z,10.47
2022-12-24T13:24:14.017Z,10.45
2022-12-24T13:26:42.300Z,10.40
2022-12-24T13:29:37.928Z,10.39
2022-12-24T13:32:53.132Z,10.40
2022-12-24T13:35:20.888Z,10.35
2022-12-24T13:37:52.387Z,10.34
2022-12-24T13:40:29.257Z,10.30
2022-12-24T13:43:00.072Z,10.29
2022-12-24T13:45:30.883Z,10.27
2022-12-24T13:48:07.437Z,10.26
2022-12-24T13:50:37.945Z,10.24
2022-12-24T13:53:06.621Z,10.24
2022-12-24T13:55:34.523Z,10.23
2022-12-24T13:58:06.236Z,10.22
2022-12-24T14:00:44.152Z,10.25
2022-12-24T14:03:15.324Z,10.28
2022-12-24T14:05:47.578Z,10.28
2022-12-24T14:08:29.644Z,10.27
2022-12-24T14:11:17.989Z,10.29
2022-12-24T14:13:45.729Z,10.26
2022-12-24T14:16:14.591Z,10.26
2022-12-24T14:18:44.882Z,10.24
2022-12-24T14:21:36.698Z,10.24
2022-12-24T14:24:06.815Z,10.24
2022-12-24T14:26:46.042Z,10.26
2022-12-24T14:29:25.016Z,10.26
2022-12-24T14:31:57.590Z,10.26
2022-12-24T14:34:25.604Z,10.22
2022-12-24T14:36:55.698Z,10.22
2022-12-24T14:39:25.929Z,10.19
2022-12-24T14:42:16.587Z,10.16
2022-12-24T14:45:03.120Z,10.16
2022-12-24T14:47:39.091Z,10.15
2022-12-24T14:50:25.414Z,10.08
2022-12-24T14:53:06.256Z,10.07
2022-12-24T14:55:45.441Z,10.05
2022-12-24T14:58:31.776Z,10.01
2022-12-24T15:01:01.783Z,9.97
2022-12-24T15:03:31.900Z,9.94
2022-12-24T15:06:10.388Z,9.90
2022-12-24T15:08:42.094Z,9.89
2022-12-24T15:11:10.597Z,9.87
2022-12-24T15:13:45.680Z,9.80
2022-12-24T15:16:15.071Z,9.81
2022-12-24T15:18:51.269Z,9.79
2022-12-24T15:21:33.772Z,9.75
2022-12-24T15:24:01.877Z,9.72
2022-12-24T15:26:32.153Z,9.69
2022-12-24T15:29:03.625Z,9.69
2022-12-24T15:31:32.178Z,9.64
2022-12-24T15:34:03.021Z,9.57
2022-12-24T15:36:37.428Z,9.56
2022-12-24T15:39:09.422Z,9.50
2022-12-24T15:41:39.736Z,9.51
2022-12-24T15:44:07.659Z,9.49
2022-12-24T15:46:35.600Z,9.43
2022-12-24T15:49:03.491Z,9.40
2022-12-24T15:51:36.973Z,9.38
2022-12-24T15:54:13.112Z,9.37
2022-12-24T15:56:45.403Z,9.37
2022-12-24T15:59:17.267Z,9.35
2022-12-24T16:01:45.780Z,9.32
2022-12-24T16:04:15.655Z,9.37
2022-12-24T16:07:09.152Z,9.32
2022-12-24T16:09:36.933Z,9.28
2022-12-24T16:12:05.237Z,9.26
2022-12-24T16:14:33.504Z,9.26
2022-12-24T16:17:01.471Z,9.25
2022-12-24T16:19:37.636Z,9.25
2022-12-24T16:22:26.148Z,9.23
2022-12-24T16:24:54.043Z,9.22
2022-12-24T16:27:21.845Z,9.20
2022-12-24T16:29:49.597Z,9.18
2022-12-24T16:32:32.331Z,9.17
2022-12-24T16:35:00.267Z,9.14
2022-12-24T16:37:28.145Z,9.14
2022-12-24T16:39:56.133Z,9.11
2022-12-24T16:42:42.399Z,9.11
2022-12-24T16:45:11.497Z,9.13
2022-12-24T16:47:43.140Z,9.10
2022-12-24T16:50:16.074Z,9.11
2022-12-24T16:52:43.943Z,9.12
2022-12-24T16:55:14.858Z,9.11
2022-12-24T16:57:43.183Z,9.12
2022-12-24T17:00:22.031Z,9.11
2022-12-24T17:02:50.765Z,9.11
2022-12-24T17:05:18.947Z,9.10
2022-12-24T17:07:46.844Z,9.09
2022-12-24T17:10:15.189Z,9.08
2022-12-24T17:12:43.642Z,9.08
2022-12-24T17:15:11.697Z,9.08
2022-12-24T17:17:39.470Z,9.08
2022-12-24T17:20:07.922Z,9.08
2022-12-24T17:22:35.731Z,9.07
2022-12-24T17:25:03.658Z,9.05
2022-12-24T17:27:31.548Z,9.05
2022-12-24T17:29:59.403Z,9.04
2022-12-24T17:32:28.745Z,9.04
2022-12-24T17:34:56.551Z,9.01
2022-12-24T17:37:24.350Z,9.03
2022-12-24T17:39:52.130Z,8.99
2022-12-24T17:42:20.112Z,8.91
2022-12-24T17:44:47.814Z,8.87
2022-12-24T17:47:15.558Z,8.82
2022-12-24T17:49:43.334Z,8.82
2022-12-24T17:52:11.173Z,8.80
2022-12-24T17:54:38.986Z,8.78
2022-12-24T17:57:06.825Z,8.74
2022-12-24T17:59:34.761Z,8.73
2022-12-24T18:02:02.753Z,8.72
2022-12-24T18:04:30.626Z,8.70
2022-12-24T18:07:02.508Z,8.67
2022-12-24T18:09:30.727Z,8.63
2022-12-24T18:11:58.531Z,8.60
2022-12-24T18:14:26.340Z,8.54
2022-12-24T18:16:54.153Z,8.56
2022-12-24T18:19:21.897Z,8.57
2022-12-24T18:21:49.759Z,8.58
2022-12-24T18:24:17.771Z,8.62
2022-12-24T18:26:46.862Z,8.62
2022-12-24T18:29:14.933Z,8.61
2022-12-24T18:31:42.786Z,8.60
2022-12-24T18:34:12.694Z,8.62
2022-12-24T18:36:40.568Z,8.58
2022-12-24T18:39:08.512Z,8.58
2022-12-24T18:41:37.101Z,8.58
2022-12-24T18:44:04.976Z,8.58
2022-12-24T18:46:33.857Z,8.56
2022-12-24T18:49:01.954Z,8.57
2022-12-24T18:51:32.081Z,8.53
2022-12-24T18:54:00.040Z,8.56
2022-12-24T18:56:27.988Z,8.54
2022-12-24T18:58:57.325Z,8.50
2022-12-24T19:01:30.544Z,8.50
2022-12-24T19:03:58.652Z,8.52
2022-12-24T19:06:26.746Z,8.54
2022-12-24T19:08:57.733Z,8.54
2022-12-24T19:11:27.075Z,8.54
2022-12-24T19:13:54.934Z,8.50
2022-12-24T19:16:22.947Z,8.49
2022-12-24T19:18:51.160Z,8.42
2022-12-24T19:21:19.104Z,8.42
2022-12-24T19:23:47.114Z,8.44
2022-12-24T19:26:15.477Z,8.44
2022-12-24T19:28:43.310Z,8.42
2022-12-24T19:31:13.225Z,8.41
2022-12-24T19:33:45.222Z,8.41
2022-12-24T19:36:14.780Z,8.41
2022-12-24T19:38:42.879Z,8.39
2022-12-24T19:41:18.179Z,8.42
2022-12-24T19:43:47.458Z,8.40
2022-12-24T19:46:17.104Z,8.41
2022-12-24T19:48:45.020Z,8.40
2022-12-24T19:51:13.242Z,8.41
2022-12-24T19:53:41.180Z,8.43
2022-12-24T19:56:09.824Z,8.39
2022-12-24T19:58:37.743Z,8.39
2022-12-24T20:01:14.847Z,8.42
2022-12-24T20:03:43.752Z,8.43
2022-12-24T20:06:11.636Z,8.46
2022-12-24T20:08:40.027Z,8.45
2022-12-24T20:11:09.308Z,8.46
2022-12-24T20:13:37.373Z,8.47
2022-12-24T20:16:16.195Z,8.48
2022-12-24T20:18:44.218Z,8.47
2022-12-24T20:21:13.077Z,8.45
2022-12-24T20:23:41.731Z,8.48
2022-12-24T20:26:12.097Z,8.48
2022-12-24T20:28:39.978Z,8.49
2022-12-24T20:31:15.801Z,8.49
2022-12-24T20:33:44.223Z,8.50
2022-12-24T20:36:12.535Z,8.52
2022-12-24T20:38:40.615Z,8.49
2022-12-24T20:41:10.888Z,8.47
2022-12-24T20:43:47.008Z,8.46
2022-12-24T20:46:15.170Z,8.47
2022-12-24T20:48:43.514Z,8.50
2022-12-24T20:51:20.941Z,8.49
2022-12-24T20:53:51.026Z,8.45
2022-12-24T20:56:18.927Z,8.43
2022-12-24T20:58:46.849Z,8.43
2022-12-24T21:01:19.668Z,8.45
2022-12-24T21:03:47.977Z,8.47
2022-12-24T21:06:20.468Z,8.49
2022-12-24T21:08:50.267Z,8.51
2022-12-24T21:11:36.612Z,8.51
2022-12-24T21:14:09.556Z,8.51
2022-12-24T21:16:43.192Z,8.49
2022-12-24T21:19:12.885Z,8.50
2022-12-24T21:21:46.284Z,8.51
2022-12-24T21:24:14.359Z,8.53
2022-12-24T21:26:47.075Z,8.54
2022-12-24T21:29:15.956Z,8.55
2022-12-24T21:31:44.035Z,8.56
2022-12-24T21:34:11.947Z,8.57
2022-12-24T21:36:44.619Z,8.56
2022-12-24T21:39:24.826Z,8.58
2022-12-24T21:41:53.100Z,8.57
2022-12-24T21:44:21.325Z,8.52
2022-12-24T21:46:55.976Z,8.54
2022-12-24T21:49:42.728Z,8.55
2022-12-24T21:52:10.787Z,8.53
2022-12-24T21:54:43.366Z,8.49
2022-12-24T21:57:29.784Z,8.47
2022-12-24T22:00:18.681Z,8.44
2022-12-24T22:02:51.462Z,8.42
2022-12-24T22:05:31.658Z,8.44
2022-12-24T22:08:30.752Z,8.45
2022-12-24T22:11:29.946Z,8.44
2022-12-24T22:13:57.843Z,8.44
2022-12-24T22:16:26.024Z,8.44
2022-12-24T22:18:59.642Z,8.44
2022-12-24T22:21:32.278Z,8.44
2022-12-24T22:24:05.351Z,8.43
2022-12-24T22:26:33.243Z,8.40
2022-12-24T22:29:06.686Z,8.35
2022-12-24T22:31:39.748Z,8.34
2022-12-24T22:34:08.205Z,8.30
2022-12-24T22:36:41.299Z,8.31
2022-12-24T22:39:09.124Z,8.31
2022-12-24T22:41:37.199Z,8.27
2022-12-24T22:44:05.267Z,8.32
2022-12-24T22:46:58.237Z,8.31
2022-12-24T22:49:39.872Z,8.34
2022-12-24T22:52:12.494Z,8.35
2022-12-24T22:54:40.469Z,8.32
2022-12-24T22:57:11.445Z,8.33
2022-12-24T22:59:42.640Z,8.33
2022-12-24T23:02:15.291Z,8.35
2022-12-24T23:04:46.339Z,8.35
2022-12-24T23:07:14.221Z,8.35
2022-12-24T23:09:47.416Z,8.34
2022-12-24T23:12:15.363Z,8.34
2022-12-24T23:14:58.133Z,8.32
2022-12-24T23:17:26.212Z,8.33
2022-12-24T23:19:56.888Z,8.31
2022-12-24T23:22:29.767Z,8.31
2022-12-24T23:25:12.788Z,8.30
2022-12-24T23:27:45.529Z,8.31
2022-12-24T23:30:13.737Z,8.31
2022-12-24T23:32:46.325Z,8.31
2022-12-24T23:35:26.547Z,8.31
2022-12-24T23:37:54.426Z,8.32
2022-12-24T23:40:27.142Z,8.31
2022-12-24T23:42:59.751Z,8.30
2022-12-24T23:45:32.477Z,8.31
2022-12-24T23:48:00.776Z,8.32
2022-12-24T23:50:28.999Z,8.29
2022-12-24T23:53:01.943Z,8.32
2022-12-24T23:55:32.489Z,8.34
2022-12-24T23:58:14.987Z,8.36
